Dillingham Airport
PADL : now visible

Airfield :











YOU CAN JOIN US ON...

 
LOGIN :

Register | Disclaimer

   EN    FR    IT 

 









Legend :    VFR   Marginal VFR   IFR   Intensive IFR   Very Intensive IFR
Visi :
Ceiling :
>= 8 km
>= 3000ft
5 to 8 km
1000 to 3000 ft
1500m to 5 km
500 to 1000 ft
800 to 1500m
200 to 500 ft
< 800m
< 200 ft
Symbols :   Thunderstorms  Fog  Heavy snow  Heavy precipitations  Wind > 20 kt






- Airport Elevation : 81 ft
- IATA code : DLG


PADL - Dillingham

CURRENT METAR :
  • 291256Z AUTO 04010KT 10SM BKN110 M13/M18 A2994 RMK AO2 SLP142 T11331178 FZRANO PNO $

EXPIRED METARs :
  • 291156Z AUTO 04010KT 10SM BKN120 M14/M17 A2996 RMK AO2 SLP152 6//// 7//// T11391172 11122 21144 56026 FZRANO PNO $
  • 291056Z AUTO 03009KT 10SM CLR M14/M17 A2998 RMK AO2 SLP158 T11441167 FZRANO PNO $

TAF PADL
Valid from the 29 at 12:00 until the 01 at 12:00 UTC


291129Z 2912/0112 02011KT P6SM VCSH SCT008 SCT016 BKN035
FM291600 01017G25KT P6SM VCSH SCT015 OVC030
FM291800 02020G28KT 1 1/2SM -SN BLSN FEW007 BKN015 OVC025 WS020/12050KT
FM292100 03020G28KT 1/2SM SN BLSN FEW001 SCT003 OVC007 WS020/15040KT
FM010500 15008G16KT 2SM -SN BR SCT003 OVC007 WS020/20040KT



MET'MAP, your aeronautical weather chart ! - Copyright ORBIFLY December 2007 - Disclaimer

ORBIFLY MET'MAP TEAM :

Programming & Development : Alexandra Zaïnal
Concept & original design : Baudouin d'Aumeries
Assistance for programming : Marc-Olivier Méhu
Technical & hardware support : Manuel Goepfert

Contact : metmap@orbifly.com




SOURCES & CREDITS :

   NOAA       Earth
Advisory